Terminal Aerodrome Forecast
Issued by NWS Lake Charles, LA

Home | Current Version | Previous Version | Text Only | Print | Product List | Glossary On
Versions: 1 2 3 4 5 6 7 8 9 10 11 12 13 14 15
000
FTUS44 KLCH 040917 AAA
TAFLFT
TAF AMD
KLFT 040917Z 0409/0506 VRB04KT 4SM BR SCT002 SCT025
      TEMPO 0409/0413 1SM BR BKN002
     FM041400 16007KT P6SM VCSH SCT035 PROB30 0418/0424 3SM TSRA
      OVC025CB=

USA.gov is the U.S. government's official web portal to all federal, state and local government web resources and services.